• Join FlightAware (Why Join?)
  • Login
  • US Flag 
03:47AM EDT


 

Airport Tracker/Info


-or-


 

Live Flight TrackerFlight Track Log ✈ SWA2236 ✈ 08-Jul-2013 ✈ KABQ - KOAK

Flight Track Log - Related Links

Times and Time Zones

All times are in EDT time to prevent confusion due to time zone crossing. See the SWA2236 flight status page for this flight to view local times or setup timezone preferences in your user account.

Time Position Orientation Groundspeed Altitude Reporting Facility
EDT Latitude Longitude Course Direction KTS MPH feet Rate Location/Type
09:13AM 35.0606 -106.5178 70° East 201 231 7,900  Level Albuquerque Center
09:14AM 35.1028 -106.5828 308° West 258 297 9,700 1,320 Climbing Albuquerque Center
09:15AM 35.0956 -106.6858 265° West 287 330 11,100 1,920 Climbing Albuquerque Center
09:16AM 35.1228 -106.7972 287° West 339 390 13,600 2,400 Climbing Albuquerque Center
09:17AM 35.1483 -106.9375 283° West 367 422 16,100 2,280 Climbing Albuquerque Center
09:18AM 35.1653 -107.0653 279° West 382 440 18,300 2,340 Climbing Albuquerque Center
09:19AM 35.1833 -107.1983 279° West 399 459 20,900 2,340 Climbing Albuquerque Center
09:20AM 35.2017 -107.3361 279° West 412 474 23,100 2,040 Climbing Albuquerque Center
09:21AM 35.2214 -107.4764 280° West 416 479 25,100 1,860 Climbing Albuquerque Center
09:22AM 35.2436 -107.6361 280° West 424 488 26,900 1,620 Climbing Albuquerque Center
09:23AM 35.2628 -107.7775 279° West 435 501 28,400 1,440 Climbing Albuquerque Center
09:24AM 35.2817 -107.9244 279° West 449 517 29,900 1,620 Climbing Albuquerque Center
09:25AM 35.3044 -108.0958 279° West 456 525 31,800 1,800 Climbing Albuquerque Center
09:26AM 35.3225 -108.2425 279° West 454 522 33,600 1,740 Climbing Albuquerque Center
09:27AM 35.3414 -108.3847 279° West 445 512 35,400 1,800 Climbing Albuquerque Center
09:28AM 35.3619 -108.5461 279° West 433 498 37,300 1,260 Climbing Albuquerque Center
09:29AM 35.3806 -108.6817 280° West 424 488 38,000 300 Climbing Albuquerque Center
09:30AM 35.4006 -108.8403 279° West 421 484 38,000  Level Albuquerque Center
09:31AM 35.4172 -108.9767 279° West 420 483 38,000  Level Albuquerque Center
09:32AM 35.4347 -109.1122 279° West 420 483 38,000  Level Albuquerque Center
09:33AM 35.4536 -109.2708 278° West 419 482 38,000  Level Albuquerque Center
09:34AM 35.4700 -109.4072 278° West 419 482 38,000  Level Albuquerque Center
09:36AM 35.4867 -109.5442 279° West 421 484 38,000  Level Albuquerque Center
09:37AM 35.5058 -109.7014 279° West 418 481 38,000  Level Albuquerque Center
09:38AM 35.5211 -109.8356 278° West 415 478 38,000  Level Albuquerque Center
09:39AM 35.5342 -109.9711 277° West 416 479 38,000  Level Albuquerque Center
09:40AM 35.5525 -110.1281 278° West 416 479 38,000  Level Albuquerque Center
09:41AM 35.5664 -110.2636 277° West 417 480 38,000  Level Albuquerque Center
09:42AM 35.5831 -110.3992 279° West 417 480 38,000  Level Albuquerque Center
09:43AM 35.6000 -110.5581 278° West 420 483 38,000  Level Albuquerque Center
09:44AM 35.6142 -110.6956 277° West 422 486 38,000  Level Albuquerque Center
09:45AM 35.6294 -110.8322 278° West 422 486 38,000  Level Albuquerque Center
09:46AM 35.6472 -110.9933 278° West 424 488 38,000  Level Albuquerque Center
09:47AM 35.6614 -111.1306 277° West 424 488 38,000  Level Albuquerque Center
09:48AM 35.6817 -111.2903 279° West 424 488 38,000  Level Albuquerque Center
09:49AM 35.6947 -111.4272 277° West 423 487 38,000  Level Albuquerque Center
09:50AM 35.7072 -111.5767 276° West 425 489 38,000  Level Albuquerque Center
09:50AM 35.7169 -111.6617 278° West 423 487 38,000  Level Los Angeles Center
09:51AM 35.7306 -111.8075 277° West 429 494 38,000  Level Los Angeles Center
09:53AM 35.7456 -111.9506 277° West 427 491 38,000  Level Los Angeles Center
09:54AM 35.7622 -112.1233 277° West 428 493 38,000  Level Los Angeles Center
09:55AM 35.7764 -112.2661 277° West 427 491 38,000  Level Los Angeles Center
09:56AM 35.7900 -112.4094 277° West 426 490 38,000  Level Los Angeles Center
09:57AM 35.8039 -112.5511 277° West 422 486 38,000  Level Los Angeles Center
09:58AM 35.8167 -112.6942 276° West 426 490 38,000  Level Los Angeles Center
09:59AM 35.8347 -112.8939 276° West 426 490 38,000  Level Los Angeles Center
10:00AM 35.8481 -113.0358 277° West 424 488 38,000  Level Los Angeles Center
10:01AM 35.8603 -113.1781 276° West 423 487 38,000  Level Los Angeles Center
10:02AM 35.8739 -113.3200 277° West 422 486 38,000  Level Los Angeles Center
10:03AM 35.8881 -113.4911 276° West 422 486 38,000  Level Los Angeles Center
10:04AM 35.8994 -113.6308 276° West 424 488 38,000  Level Los Angeles Center
10:05AM 35.9122 -113.7772 276° West 428 493 38,000  Level Los Angeles Center
10:06AM 35.9233 -113.9239 275° West 429 494 38,000  Level Los Angeles Center
10:07AM 35.9347 -114.0686 276° West 425 489 38,000  Level Los Angeles Center
10:08AM 35.9461 -114.2156 276° West 427 491 38,000  Level Los Angeles Center
10:09AM 35.9608 -114.3922 276° West 430 495 38,000  Level Los Angeles Center
10:10AM 35.9703 -114.5375 275° West 427 491 38,000  Level Los Angeles Center
10:11AM 35.9831 -114.6842 276° West 428 493 38,000  Level Los Angeles Center
10:12AM 35.9942 -114.8297 275° West 425 489 38,000  Level Los Angeles Center
10:13AM 36.0389 -114.9661 292° West 433 498 38,000  Level Los Angeles Center
10:14AM 36.0986 -115.0972 299° West 437 503 38,000  Level Los Angeles Center
10:15AM 36.1564 -115.2292 299° West 436 502 38,000  Level Los Angeles Center
10:16AM 36.2250 -115.3878 298° West 435 501 38,000  Level Los Angeles Center
10:17AM 36.2819 -115.5189 298° West 431 496 38,000  Level Los Angeles Center
10:18AM 36.3333 -115.6408 298° West 440 506 38,000  Level Los Angeles Center
10:20AM 36.4011 -115.8006 298° West 434 499 38,000  Level Los Angeles Center
10:21AM 36.4539 -115.9250 298° West 425 489 38,000  Level Los Angeles Center
10:22AM 36.5092 -116.0586 297° West 430 495 38,000  Level Los Angeles Center
10:23AM 36.5658 -116.1883 299° West 427 491 38,000  Level Los Angeles Center
10:24AM 36.6217 -116.3233 297° West 434 499 38,000  Level Los Angeles Center
10:25AM 36.6761 -116.4556 297° West 432 497 38,000  Level Los Angeles Center
10:26AM 36.7428 -116.6131 298° West 428 493 38,000  Level Los Angeles Center
10:27AM 36.7994 -116.7422 299° West 425 489 38,000  Level Los Angeles Center
10:28AM 36.8986 -116.8336 324° Northwest 439 505 38,000  Level Los Angeles Center
10:29AM 37.0033 -116.9208 326° Northwest 448 516 38,000  Level Los Angeles Center
10:30AM 37.0753 -117.0383 308° West 437 503 38,000  Level Los Angeles Center
10:31AM 37.1067 -117.1783 286° West 419 482 38,000  Level Los Angeles Center
10:32AM 37.1406 -117.3183 287° West 419 482 38,000  Level Los Angeles Center
10:33AM 37.1736 -117.4594 286° West 419 482 38,000  Level Los Angeles Center
10:34AM 37.2131 -117.6267 287° West 416 479 38,000  Level Los Angeles Center
10:35AM 37.2450 -117.7672 286° West 417 480 38,000  Level Los Angeles Center
10:36AM 37.2769 -117.9067 286° West 416 479 38,000  Level Los Angeles Center
10:37AM 37.3092 -118.0472 286° West 416 479 38,000 -300 Level Los Angeles Center
10:38AM 37.3411 -118.1878 286° West 417 480 37,400 -780 Descending Los Angeles Center
10:39AM 37.3700 -118.3197 285° West 422 486 36,500 -720 Descending Los Angeles Center
10:40AM 37.4069 -118.4867 286° West 417 480 36,000 -300 Descending Los Angeles Center
10:41AM 37.4361 -118.6114 286° West 419 482 36,000  Level Los Angeles Center
10:42AM 37.4722 -118.7811 285° West 420 483 36,000  Level Los Angeles Center
10:43AM 37.5036 -118.9219 286° West 419 482 36,000 -60 Level Los Angeles Center
10:44AM 37.5342 -119.0761 284° West 419 482 35,900 -60 Descending Oakland Center
10:45AM 37.5647 -119.2172 285° West 419 482 35,900  Level Oakland Center
10:46AM 37.5994 -119.3858 285° West 418 481 35,900  Level Oakland Center
10:48AM 37.6303 -119.5244 286° West 419 482 36,000  Climbing Oakland Center
10:49AM 37.6592 -119.6656 285° West 417 480 36,000  Level Oakland Center
10:50AM 37.6886 -119.8081 285° West 418 481 36,000  Level Oakland Center
10:51AM 37.7200 -119.9497 286° West 419 482 36,000 -480 Level Oakland Center
10:52AM 37.7486 -120.0931 284° West 419 482 35,100 -1,920 Descending Oakland Center
10:53AM 37.7786 -120.2311 285° West 411 473 32,200 -3,420 Descending Oakland Center
10:54AM 37.8069 -120.3781 284° West 425 489 28,200 -3,300 Descending Oakland Center
10:55AM 37.8383 -120.5269 285° West 434 499 25,500 -2,940 Descending Oakland Center
10:55AM 37.8667 -120.6500 286° West 414 476 23,300 -2,820 Descending Northern Cal TRACON
10:56AM 37.8500 -120.7833 261° West 397 457 21,100 -2,400 Descending Northern Cal TRACON
10:57AM 37.8500 -120.9000 270° West 385 443 18,800 -2,220 Descending Northern Cal TRACON
10:58AM 37.8333 -121.0333 261° West 352 405 16,700 -2,460 Descending Northern Cal TRACON
10:59AM 37.8333 -121.1500 270° West 346 398 14,200 -2,340 Descending Northern Cal TRACON
11:00AM 37.8000 -121.2500 247° West 379 436 12,500 -1,440 Descending Northern Cal TRACON
11:01AM 37.7667 -121.3500 247° West 319 367 11,400 -1,080 Descending Northern Cal TRACON
11:02AM 37.7333 -121.4500 247° West 301 346 10,400 -1,080 Descending Northern Cal TRACON
11:03AM 37.7000 -121.5333 243° Southwest 283 326 9,400 -1,080 Descending Northern Cal TRACON
11:04AM 37.6667 -121.6167 243° Southwest 273 314 8,300 -1,200 Descending Northern Cal TRACON
11:05AM 37.6500 -121.7000 256° West 273 314 7,200 -1,260 Descending Northern Cal TRACON
11:06AM 37.6167 -121.7833 243° Southwest 264 304 6,000 -1,200 Descending Northern Cal TRACON
11:07AM 37.5833 -121.8667 243° Southwest 263 303 4,800 -1,080 Descending Northern Cal TRACON
11:08AM 37.5667 -121.9500 256° West 251 289 4,000 -600 Descending Northern Cal TRACON
11:09AM 37.5833 -122.0333 284° West 251 289 3,700 -780 Descending Northern Cal TRACON
11:10AM 37.6167 -122.0833 310° West 223 257 2,600 -1,080 Descending Northern Cal TRACON
11:11AM 37.6500 -122.1333 310° West 170 196 1,700 -900 Descending Northern Cal TRACON
11:12AM 37.6667 -122.1667 302° West 137 158 900 -840 Descending Northern Cal TRACON
11:13AM 37.7000 -122.2167 310° West 133 153 100 -840 Descending Northern Cal TRACON
11:15AM 37.7167 -122.2167 270° West  Level FlightAware Approximate
11:22AM 37.7213 -122.2207 270° West  Level Estimated